sensor_id;sensor_type;location;lat;lon;timestamp;temperature;humidity
54832;DHT22;40730;53.068;6.572;2022-11-20T00:00:29;-0.90;99.90
54832;DHT22;40730;53.068;6.572;2022-11-20T00:02:54;-0.90;99.90
54832;DHT22;40730;53.068;6.572;2022-11-20T00:05:20;-0.90;99.90
54832;DHT22;40730;53.068;6.572;2022-11-20T00:07:46;-0.80;99.90
54832;DHT22;40730;53.068;6.572;2022-11-20T00:10:12;-0.80;99.90
54832;DHT22;40730;53.068;6.572;2022-11-20T00:12:37;-0.80;99.90
54832;DHT22;40730;53.068;6.572;2022-11-20T00:15:04;-0.70;99.90
54832;DHT22;40730;53.068;6.572;2022-11-20T00:17:29;-0.70;99.90
54832;DHT22;40730;53.068;6.572;2022-11-20T00:19:55;-0.70;99.90
54832;DHT22;40730;53.068;6.572;2022-11-20T00:22:21;-0.70;99.90
54832;DHT22;40730;53.068;6.572;2022-11-20T00:24:46;-0.70;99.90
54832;DHT22;40730;53.068;6.572;2022-11-20T00:27:12;-0.70;99.90
54832;DHT22;40730;53.068;6.572;2022-11-20T00:29:37;-0.70;99.90
54832;DHT22;40730;53.068;6.572;2022-11-20T00:32:03;-0.70;99.90
54832;DHT22;40730;53.068;6.572;2022-11-20T00:34:28;-0.70;99.90
54832;DHT22;40730;53.068;6.572;2022-11-20T00:36:54;-0.70;99.90
54832;DHT22;40730;53.068;6.572;2022-11-20T00:39:20;-0.70;99.90
54832;DHT22;40730;53.068;6.572;2022-11-20T00:41:45;-0.70;99.90
54832;DHT22;40730;53.068;6.572;2022-11-20T00:44:11;-0.70;99.90
54832;DHT22;40730;53.068;6.572;2022-11-20T00:46:36;-0.70;99.90
54832;DHT22;40730;53.068;6.572;2022-11-20T00:49:02;-0.70;99.90
54832;DHT22;40730;53.068;6.572;2022-11-20T00:51:28;-0.70;99.90
54832;DHT22;40730;53.068;6.572;2022-11-20T00:53:57;-0.60;99.90
54832;DHT22;40730;53.068;6.572;2022-11-20T00:56:24;-0.70;99.90
54832;DHT22;40730;53.068;6.572;2022-11-20T00:58:50;-0.70;99.90
54832;DHT22;40730;53.068;6.572;2022-11-20T01:01:21;-0.70;99.90
54832;DHT22;40730;53.068;6.572;2022-11-20T01:03:51;-0.60;99.90
54832;DHT22;40730;53.068;6.572;2022-11-20T01:06:24;-0.60;99.90
54832;DHT22;40730;53.068;6.572;2022-11-20T01:08:53;-0.60;99.90
54832;DHT22;40730;53.068;6.572;2022-11-20T01:11:21;-0.60;99.90
54832;DHT22;40730;53.068;6.572;2022-11-20T01:13:48;-0.60;99.90
54832;DHT22;40730;53.068;6.572;2022-11-20T01:18:48;-0.60;99.90
54832;DHT22;40730;53.068;6.572;2022-11-20T01:21:20;-0.70;99.90
54832;DHT22;40730;53.068;6.572;2022-11-20T01:23:48;-0.60;99.90
54832;DHT22;40730;53.068;6.572;2022-11-20T01:26:22;-0.60;99.90
54832;DHT22;40730;53.068;6.572;2022-11-20T01:28:49;-0.60;99.90
54832;DHT22;40730;53.068;6.572;2022-11-20T01:33:42;-0.60;99.90
54832;DHT22;40730;53.068;6.572;2022-11-20T01:36:09;-0.60;99.90
54832;DHT22;40730;53.068;6.572;2022-11-20T01:38:35;-0.60;99.90
54832;DHT22;40730;53.068;6.572;2022-11-20T01:41:01;-0.60;99.90
54832;DHT22;40730;53.068;6.572;2022-11-20T01:43:26;-0.60;99.90
54832;DHT22;40730;53.068;6.572;2022-11-20T01:46:16;-0.60;99.90
54832;DHT22;40730;53.068;6.572;2022-11-20T01:48:50;-0.60;99.90
54832;DHT22;40730;53.068;6.572;2022-11-20T01:53:51;-0.60;99.90
54832;DHT22;40730;53.068;6.572;2022-11-20T01:56:17;-0.60;99.90
54832;DHT22;40730;53.068;6.572;2022-11-20T01:58:54;-0.60;99.90
54832;DHT22;40730;53.068;6.572;2022-11-20T02:01:22;-0.60;99.90
54832;DHT22;40730;53.068;6.572;2022-11-20T02:03:48;-0.60;99.90
54832;DHT22;40730;53.068;6.572;2022-11-20T02:06:35;-0.60;99.90
54832;DHT22;40730;53.068;6.572;2022-11-20T02:09:01;-0.20;99.90
54832;DHT22;40730;53.068;6.572;2022-11-20T02:11:27;-0.60;99.90
54832;DHT22;40730;53.068;6.572;2022-11-20T02:13:53;-0.60;99.90
54832;DHT22;40730;53.068;6.572;2022-11-20T02:18:48;-0.60;99.90
54832;DHT22;40730;53.068;6.572;2022-11-20T02:21:19;-0.60;99.90
54832;DHT22;40730;53.068;6.572;2022-11-20T02:26:50;0.00;99.90
54832;DHT22;40730;53.068;6.572;2022-11-20T02:29:25;-0.60;99.90
54832;DHT22;40730;53.068;6.572;2022-11-20T02:31:52;-0.60;99.90
54832;DHT22;40730;53.068;6.572;2022-11-20T02:34:20;-0.50;99.90
54832;DHT22;40730;53.068;6.572;2022-11-20T02:36:46;-0.50;99.90
54832;DHT22;40730;53.068;6.572;2022-11-20T02:39:15;-0.50;99.90
54832;DHT22;40730;53.068;6.572;2022-11-20T02:41:42;-0.50;99.90
54832;DHT22;40730;53.068;6.572;2022-11-20T02:44:08;-0.50;99.90
54832;DHT22;40730;53.068;6.572;2022-11-20T02:46:34;-0.50;99.90
54832;DHT22;40730;53.068;6.572;2022-11-20T02:49:01;-0.50;99.90
54832;DHT22;40730;53.068;6.572;2022-11-20T02:51:27;-0.50;99.90
54832;DHT22;40730;53.068;6.572;2022-11-20T02:53:52;-0.50;99.90
54832;DHT22;40730;53.068;6.572;2022-11-20T02:56:18;-0.50;99.90
54832;DHT22;40730;53.068;6.572;2022-11-20T02:58:44;-0.40;99.90
54832;DHT22;40730;53.068;6.572;2022-11-20T03:01:09;-0.40;99.90
54832;DHT22;40730;53.068;6.572;2022-11-20T03:03:35;0.00;99.90
54832;DHT22;40730;53.068;6.572;2022-11-20T03:06:00;-0.40;99.90
54832;DHT22;40730;53.068;6.572;2022-11-20T03:08:26;-0.40;99.90
54832;DHT22;40730;53.068;6.572;2022-11-20T03:10:52;-0.40;99.90
54832;DHT22;40730;53.068;6.572;2022-11-20T03:13:18;-0.40;99.90
54832;DHT22;40730;53.068;6.572;2022-11-20T03:15:43;-0.30;99.90
54832;DHT22;40730;53.068;6.572;2022-11-20T03:18:09;-0.40;99.90
54832;DHT22;40730;53.068;6.572;2022-11-20T03:20:35;-0.30;99.90
54832;DHT22;40730;53.068;6.572;2022-11-20T03:23:01;-0.30;99.90
54832;DHT22;40730;53.068;6.572;2022-11-20T03:25:27;-0.30;99.90
54832;DHT22;40730;53.068;6.572;2022-11-20T03:27:53;-0.30;99.90
54832;DHT22;40730;53.068;6.572;2022-11-20T03:30:18;-0.30;99.90
54832;DHT22;40730;53.068;6.572;2022-11-20T03:32:44;-0.20;99.90
54832;DHT22;40730;53.068;6.572;2022-11-20T03:35:10;-0.20;99.90
54832;DHT22;40730;53.068;6.572;2022-11-20T03:37:35;-0.20;99.90
54832;DHT22;40730;53.068;6.572;2022-11-20T03:40:01;-0.20;99.90
54832;DHT22;40730;53.068;6.572;2022-11-20T03:42:26;-0.20;99.90
54832;DHT22;40730;53.068;6.572;2022-11-20T03:45:10;-0.20;99.90
54832;DHT22;40730;53.068;6.572;2022-11-20T03:47:36;-0.20;99.90
54832;DHT22;40730;53.068;6.572;2022-11-20T03:50:02;-0.20;99.90
54832;DHT22;40730;53.068;6.572;2022-11-20T03:52:27;-0.20;99.90
54832;DHT22;40730;53.068;6.572;2022-11-20T03:54:53;-0.20;99.90
54832;DHT22;40730;53.068;6.572;2022-11-20T03:57:19;-0.20;99.90
54832;DHT22;40730;53.068;6.572;2022-11-20T03:59:44;-0.20;99.90
54832;DHT22;40730;53.068;6.572;2022-11-20T04:02:10;-0.20;99.90
54832;DHT22;40730;53.068;6.572;2022-11-20T04:04:35;-0.20;99.90
54832;DHT22;40730;53.068;6.572;2022-11-20T04:07:01;-0.10;99.90
54832;DHT22;40730;53.068;6.572;2022-11-20T04:09:27;-0.20;99.90
54832;DHT22;40730;53.068;6.572;2022-11-20T04:11:52;-0.10;99.90
54832;DHT22;40730;53.068;6.572;2022-11-20T04:14:18;-0.10;99.90
54832;DHT22;40730;53.068;6.572;2022-11-20T04:16:44;-0.10;99.90
54832;DHT22;40730;53.068;6.572;2022-11-20T04:19:12;-0.10;99.90
54832;DHT22;40730;53.068;6.572;2022-11-20T04:21:38;0.00;99.90
54832;DHT22;40730;53.068;6.572;2022-11-20T04:24:04;-0.10;99.90
54832;DHT22;40730;53.068;6.572;2022-11-20T04:26:31;-0.10;99.90
54832;DHT22;40730;53.068;6.572;2022-11-20T04:28:58;-0.10;99.90
54832;DHT22;40730;53.068;6.572;2022-11-20T04:31:27;-0.10;99.90
54832;DHT22;40730;53.068;6.572;2022-11-20T04:33:52;-0.10;99.90
54832;DHT22;40730;53.068;6.572;2022-11-20T04:36:23;-0.10;99.90
54832;DHT22;40730;53.068;6.572;2022-11-20T04:38:57;-0.10;99.90
54832;DHT22;40730;53.068;6.572;2022-11-20T04:41:28;-0.10;99.90
54832;DHT22;40730;53.068;6.572;2022-11-20T04:43:56;-0.10;99.90
54832;DHT22;40730;53.068;6.572;2022-11-20T04:46:25;-0.10;99.90
54832;DHT22;40730;53.068;6.572;2022-11-20T04:48:51;-0.10;99.90
54832;DHT22;40730;53.068;6.572;2022-11-20T04:51:17;-0.10;99.90
54832;DHT22;40730;53.068;6.572;2022-11-20T04:53:43;0.00;99.90
54832;DHT22;40730;53.068;6.572;2022-11-20T04:56:10;0.00;99.90
54832;DHT22;40730;53.068;6.572;2022-11-20T04:58:36;0.00;99.90
54832;DHT22;40730;53.068;6.572;2022-11-20T05:01:03;0.00;99.90
54832;DHT22;40730;53.068;6.572;2022-11-20T05:03:30;0.00;99.90
54832;DHT22;40730;53.068;6.572;2022-11-20T05:05:55;0.00;99.90
54832;DHT22;40730;53.068;6.572;2022-11-20T05:08:21;0.00;99.90
54832;DHT22;40730;53.068;6.572;2022-11-20T05:10:47;0.00;99.90
54832;DHT22;40730;53.068;6.572;2022-11-20T05:13:12;0.00;99.90
54832;DHT22;40730;53.068;6.572;2022-11-20T05:15:38;0.00;99.90
54832;DHT22;40730;53.068;6.572;2022-11-20T05:18:03;0.00;99.90
54832;DHT22;40730;53.068;6.572;2022-11-20T05:20:29;0.00;99.90
54832;DHT22;40730;53.068;6.572;2022-11-20T05:22:58;0.00;99.90
54832;DHT22;40730;53.068;6.572;2022-11-20T05:25:23;0.00;99.90
54832;DHT22;40730;53.068;6.572;2022-11-20T05:27:49;0.00;99.90
54832;DHT22;40730;53.068;6.572;2022-11-20T05:30:14;0.00;99.90
54832;DHT22;40730;53.068;6.572;2022-11-20T05:32:40;0.00;99.90
54832;DHT22;40730;53.068;6.572;2022-11-20T05:35:06;0.00;99.90
54832;DHT22;40730;53.068;6.572;2022-11-20T05:37:32;0.00;99.90
54832;DHT22;40730;53.068;6.572;2022-11-20T05:39:57;0.00;99.90
54832;DHT22;40730;53.068;6.572;2022-11-20T05:42:23;0.00;99.90
54832;DHT22;40730;53.068;6.572;2022-11-20T05:44:59;0.00;99.90
54832;DHT22;40730;53.068;6.572;2022-11-20T05:47:26;0.10;99.90
54832;DHT22;40730;53.068;6.572;2022-11-20T05:49:51;0.00;99.90
54832;DHT22;40730;53.068;6.572;2022-11-20T05:52:17;0.00;99.90
54832;DHT22;40730;53.068;6.572;2022-11-20T05:54:42;0.00;99.90
54832;DHT22;40730;53.068;6.572;2022-11-20T05:57:08;0.00;99.90
54832;DHT22;40730;53.068;6.572;2022-11-20T05:59:34;0.00;99.90
54832;DHT22;40730;53.068;6.572;2022-11-20T06:01:59;0.10;99.90
54832;DHT22;40730;53.068;6.572;2022-11-20T06:04:25;0.10;99.90
54832;DHT22;40730;53.068;6.572;2022-11-20T06:06:50;0.10;99.90
54832;DHT22;40730;53.068;6.572;2022-11-20T06:09:16;0.10;99.90
54832;DHT22;40730;53.068;6.572;2022-11-20T06:11:41;0.10;99.90
54832;DHT22;40730;53.068;6.572;2022-11-20T06:14:07;0.10;99.90
54832;DHT22;40730;53.068;6.572;2022-11-20T06:16:33;0.10;99.90
54832;DHT22;40730;53.068;6.572;2022-11-20T06:18:58;0.70;99.90
54832;DHT22;40730;53.068;6.572;2022-11-20T06:21:24;0.10;99.90
54832;DHT22;40730;53.068;6.572;2022-11-20T06:23:51;0.10;99.90
54832;DHT22;40730;53.068;6.572;2022-11-20T06:26:20;0.10;99.90
54832;DHT22;40730;53.068;6.572;2022-11-20T06:28:46;0.10;99.90
54832;DHT22;40730;53.068;6.572;2022-11-20T06:31:13;0.10;99.90
54832;DHT22;40730;53.068;6.572;2022-11-20T06:33:40;0.10;99.90
54832;DHT22;40730;53.068;6.572;2022-11-20T06:36:06;0.10;99.90
54832;DHT22;40730;53.068;6.572;2022-11-20T06:38:31;0.20;99.90
54832;DHT22;40730;53.068;6.572;2022-11-20T06:40:57;0.10;99.90
54832;DHT22;40730;53.068;6.572;2022-11-20T06:43:23;0.10;99.90
54832;DHT22;40730;53.068;6.572;2022-11-20T06:45:53;0.10;99.90
54832;DHT22;40730;53.068;6.572;2022-11-20T06:48:19;0.10;99.90
54832;DHT22;40730;53.068;6.572;2022-11-20T06:50:44;0.10;99.90
54832;DHT22;40730;53.068;6.572;2022-11-20T06:53:10;0.10;99.90
54832;DHT22;40730;53.068;6.572;2022-11-20T06:55:35;0.10;99.90
54832;DHT22;40730;53.068;6.572;2022-11-20T06:58:01;0.10;99.90
54832;DHT22;40730;53.068;6.572;2022-11-20T07:00:27;0.10;99.90
54832;DHT22;40730;53.068;6.572;2022-11-20T07:02:52;0.10;99.90
54832;DHT22;40730;53.068;6.572;2022-11-20T07:05:18;0.10;99.90
54832;DHT22;40730;53.068;6.572;2022-11-20T07:07:43;0.20;99.90
54832;DHT22;40730;53.068;6.572;2022-11-20T07:10:09;0.20;99.90
54832;DHT22;40730;53.068;6.572;2022-11-20T07:12:35;0.20;99.90
54832;DHT22;40730;53.068;6.572;2022-11-20T07:15:01;0.20;99.90
54832;DHT22;40730;53.068;6.572;2022-11-20T07:17:26;0.20;99.90
54832;DHT22;40730;53.068;6.572;2022-11-20T07:19:52;0.20;99.90
54832;DHT22;40730;53.068;6.572;2022-11-20T07:22:18;0.30;99.90
54832;DHT22;40730;53.068;6.572;2022-11-20T07:24:43;0.30;99.90
54832;DHT22;40730;53.068;6.572;2022-11-20T07:27:09;0.30;99.90
54832;DHT22;40730;53.068;6.572;2022-11-20T07:29:34;0.30;99.90
54832;DHT22;40730;53.068;6.572;2022-11-20T07:32:00;0.30;99.90
54832;DHT22;40730;53.068;6.572;2022-11-20T07:34:25;0.30;99.90
54832;DHT22;40730;53.068;6.572;2022-11-20T07:36:51;0.30;99.90
54832;DHT22;40730;53.068;6.572;2022-11-20T07:39:17;0.30;99.90
54832;DHT22;40730;53.068;6.572;2022-11-20T07:41:42;0.30;99.90
54832;DHT22;40730;53.068;6.572;2022-11-20T07:44:08;0.40;99.90
54832;DHT22;40730;53.068;6.572;2022-11-20T07:46:33;0.40;99.90
54832;DHT22;40730;53.068;6.572;2022-11-20T07:48:59;0.40;99.90
54832;DHT22;40730;53.068;6.572;2022-11-20T07:51:24;0.40;99.90
54832;DHT22;40730;53.068;6.572;2022-11-20T07:53:52;0.40;99.90
54832;DHT22;40730;53.068;6.572;2022-11-20T07:56:17;0.40;99.90
54832;DHT22;40730;53.068;6.572;2022-11-20T07:58:43;0.40;99.90
54832;DHT22;40730;53.068;6.572;2022-11-20T08:01:08;0.40;99.90
54832;DHT22;40730;53.068;6.572;2022-11-20T08:03:34;0.40;99.90
54832;DHT22;40730;53.068;6.572;2022-11-20T08:06:03;0.40;99.90
54832;DHT22;40730;53.068;6.572;2022-11-20T08:08:29;0.40;99.90
54832;DHT22;40730;53.068;6.572;2022-11-20T08:10:57;0.40;99.90
54832;DHT22;40730;53.068;6.572;2022-11-20T08:13:43;0.50;99.90
54832;DHT22;40730;53.068;6.572;2022-11-20T08:16:27;0.50;99.90
54832;DHT22;40730;53.068;6.572;2022-11-20T08:18:53;0.50;99.90
54832;DHT22;40730;53.068;6.572;2022-11-20T08:21:19;0.50;99.90
54832;DHT22;40730;53.068;6.572;2022-11-20T08:23:44;0.60;99.90
54832;DHT22;40730;53.068;6.572;2022-11-20T08:26:10;0.60;99.90
54832;DHT22;40730;53.068;6.572;2022-11-20T08:28:35;0.60;99.90
54832;DHT22;40730;53.068;6.572;2022-11-20T08:31:02;0.60;99.90
54832;DHT22;40730;53.068;6.572;2022-11-20T08:33:28;0.60;99.90
54832;DHT22;40730;53.068;6.572;2022-11-20T08:36:01;0.50;99.90
54832;DHT22;40730;53.068;6.572;2022-11-20T08:38:28;0.50;99.90
54832;DHT22;40730;53.068;6.572;2022-11-20T08:40:58;0.50;99.90
54832;DHT22;40730;53.068;6.572;2022-11-20T08:43:43;0.50;99.90
54832;DHT22;40730;53.068;6.572;2022-11-20T08:46:09;0.50;99.90
54832;DHT22;40730;53.068;6.572;2022-11-20T08:48:35;0.60;99.90
54832;DHT22;40730;53.068;6.572;2022-11-20T08:51:00;0.60;99.90
54832;DHT22;40730;53.068;6.572;2022-11-20T08:53:26;0.60;99.90
54832;DHT22;40730;53.068;6.572;2022-11-20T08:55:52;0.60;99.90
54832;DHT22;40730;53.068;6.572;2022-11-20T08:58:18;0.60;99.90
54832;DHT22;40730;53.068;6.572;2022-11-20T09:00:43;0.60;99.90
54832;DHT22;40730;53.068;6.572;2022-11-20T09:03:09;0.60;99.90
54832;DHT22;40730;53.068;6.572;2022-11-20T09:05:34;0.60;99.90
54832;DHT22;40730;53.068;6.572;2022-11-20T09:08:01;0.70;99.90
54832;DHT22;40730;53.068;6.572;2022-11-20T09:10:27;0.70;99.90
54832;DHT22;40730;53.068;6.572;2022-11-20T09:12:53;0.70;99.90
54832;DHT22;40730;53.068;6.572;2022-11-20T09:15:20;0.70;99.90
54832;DHT22;40730;53.068;6.572;2022-11-20T09:18:00;0.70;99.90
54832;DHT22;40730;53.068;6.572;2022-11-20T09:20:28;0.70;99.90
54832;DHT22;40730;53.068;6.572;2022-11-20T09:22:55;0.70;99.90
54832;DHT22;40730;53.068;6.572;2022-11-20T09:25:21;0.70;99.90
54832;DHT22;40730;53.068;6.572;2022-11-20T09:27:47;0.80;99.90
54832;DHT22;40730;53.068;6.572;2022-11-20T09:30:14;0.80;99.90
54832;DHT22;40730;53.068;6.572;2022-11-20T09:32:40;0.80;99.90
54832;DHT22;40730;53.068;6.572;2022-11-20T09:35:05;0.90;99.90
54832;DHT22;40730;53.068;6.572;2022-11-20T09:37:31;0.90;99.90
54832;DHT22;40730;53.068;6.572;2022-11-20T09:39:57;0.90;99.90
54832;DHT22;40730;53.068;6.572;2022-11-20T09:48:13;1.00;99.90
54832;DHT22;40730;53.068;6.572;2022-11-20T09:50:57;1.00;99.90
54832;DHT22;40730;53.068;6.572;2022-11-20T09:53:52;1.10;99.90
54832;DHT22;40730;53.068;6.572;2022-11-20T09:56:20;1.10;99.90
54832;DHT22;40730;53.068;6.572;2022-11-20T09:58:50;1.20;99.90
54832;DHT22;40730;53.068;6.572;2022-11-20T10:01:18;1.20;99.90
54832;DHT22;40730;53.068;6.572;2022-11-20T10:04:15;1.20;99.90
54832;DHT22;40730;53.068;6.572;2022-11-20T10:06:56;1.30;99.90
54832;DHT22;40730;53.068;6.572;2022-11-20T10:09:31;1.30;99.90
54832;DHT22;40730;53.068;6.572;2022-11-20T10:12:14;1.30;99.90
54832;DHT22;40730;53.068;6.572;2022-11-20T10:25:24;1.60;99.90
54832;DHT22;40730;53.068;6.572;2022-11-20T10:30:25;1.70;99.90
54832;DHT22;40730;53.068;6.572;2022-11-20T10:32:54;1.80;99.90
54832;DHT22;40730;53.068;6.572;2022-11-20T10:35:28;1.90;99.90
54832;DHT22;40730;53.068;6.572;2022-11-20T10:38:03;1.90;99.90
54832;DHT22;40730;53.068;6.572;2022-11-20T10:40:41;1.90;99.90
54832;DHT22;40730;53.068;6.572;2022-11-20T10:43:14;2.00;99.90
54832;DHT22;40730;53.068;6.572;2022-11-20T10:45:51;2.00;99.90
54832;DHT22;40730;53.068;6.572;2022-11-20T10:48:23;2.00;99.90
54832;DHT22;40730;53.068;6.572;2022-11-20T10:54:06;2.50;99.90
54832;DHT22;40730;53.068;6.572;2022-11-20T10:56:56;2.20;99.90
54832;DHT22;40730;53.068;6.572;2022-11-20T10:59:37;2.30;99.90
54832;DHT22;40730;53.068;6.572;2022-11-20T11:02:19;2.30;99.90
54832;DHT22;40730;53.068;6.572;2022-11-20T11:07:55;2.30;99.90
54832;DHT22;40730;53.068;6.572;2022-11-20T11:10:57;2.40;99.90
54832;DHT22;40730;53.068;6.572;2022-11-20T11:13:25;2.40;99.90
54832;DHT22;40730;53.068;6.572;2022-11-20T11:15:51;2.40;99.90
54832;DHT22;40730;53.068;6.572;2022-11-20T11:18:27;2.40;99.90
54832;DHT22;40730;53.068;6.572;2022-11-20T11:20:54;2.40;99.90
54832;DHT22;40730;53.068;6.572;2022-11-20T11:23:40;2.40;99.90
54832;DHT22;40730;53.068;6.572;2022-11-20T11:26:18;2.50;99.90
54832;DHT22;40730;53.068;6.572;2022-11-20T11:28:59;2.50;99.90
54832;DHT22;40730;53.068;6.572;2022-11-20T11:31:30;2.50;99.90
54832;DHT22;40730;53.068;6.572;2022-11-20T11:34:15;2.60;99.90
54832;DHT22;40730;53.068;6.572;2022-11-20T11:36:41;2.70;99.90
54832;DHT22;40730;53.068;6.572;2022-11-20T11:39:15;2.80;99.90
54832;DHT22;40730;53.068;6.572;2022-11-20T11:41:43;2.80;99.90
54832;DHT22;40730;53.068;6.572;2022-11-20T11:44:23;2.90;99.90
54832;DHT22;40730;53.068;6.572;2022-11-20T11:47:32;2.90;99.90
54832;DHT22;40730;53.068;6.572;2022-11-20T11:50:19;3.00;99.90
54832;DHT22;40730;53.068;6.572;2022-11-20T11:53:11;3.10;99.90
54832;DHT22;40730;53.068;6.572;2022-11-20T11:55:56;3.20;99.90
54832;DHT22;40730;53.068;6.572;2022-11-20T11:58:48;3.30;99.90
54832;DHT22;40730;53.068;6.572;2022-11-20T12:04:36;3.30;99.90
54832;DHT22;40730;53.068;6.572;2022-11-20T12:07:26;3.40;99.90
54832;DHT22;40730;53.068;6.572;2022-11-20T12:09:57;3.50;99.90
54832;DHT22;40730;53.068;6.572;2022-11-20T12:12:29;3.60;99.90
54832;DHT22;40730;53.068;6.572;2022-11-20T12:14:56;3.80;99.90
54832;DHT22;40730;53.068;6.572;2022-11-20T12:17:22;4.00;99.90
54832;DHT22;40730;53.068;6.572;2022-11-20T12:19:48;4.20;99.90
54832;DHT22;40730;53.068;6.572;2022-11-20T12:25:06;4.60;99.50
54832;DHT22;40730;53.068;6.572;2022-11-20T12:27:43;4.80;99.20
54832;DHT22;40730;53.068;6.572;2022-11-20T12:30:15;4.80;96.00
54832;DHT22;40730;53.068;6.572;2022-11-20T12:32:58;4.80;96.90
54832;DHT22;40730;53.068;6.572;2022-11-20T13:01:19;4.50;93.40
54832;DHT22;40730;53.068;6.572;2022-11-20T13:07:03;4.60;94.10
54832;DHT22;40730;53.068;6.572;2022-11-20T13:09:30;4.70;94.20
54832;DHT22;40730;53.068;6.572;2022-11-20T13:12:09;4.70;94.10
54832;DHT22;40730;53.068;6.572;2022-11-20T13:17:42;4.60;94.50
54832;DHT22;40730;53.068;6.572;2022-11-20T13:20:15;4.50;94.70
54832;DHT22;40730;53.068;6.572;2022-11-20T13:25:10;4.20;95.40
54832;DHT22;40730;53.068;6.572;2022-11-20T13:27:35;4.20;95.80
54832;DHT22;40730;53.068;6.572;2022-11-20T13:30:13;4.10;96.10
54832;DHT22;40730;53.068;6.572;2022-11-20T13:32:54;4.10;96.90
54832;DHT22;40730;53.068;6.572;2022-11-20T13:35:31;4.10;97.20
54832;DHT22;40730;53.068;6.572;2022-11-20T13:38:07;4.20;97.20
54832;DHT22;40730;53.068;6.572;2022-11-20T13:40:36;4.20;97.30
54832;DHT22;40730;53.068;6.572;2022-11-20T13:45:34;4.30;97.30
54832;DHT22;40730;53.068;6.572;2022-11-20T13:48:18;4.30;97.00
54832;DHT22;40730;53.068;6.572;2022-11-20T13:57:06;4.10;98.20
54832;DHT22;40730;53.068;6.572;2022-11-20T14:02:25;4.00;97.90
54832;DHT22;40730;53.068;6.572;2022-11-20T14:04:57;4.00;98.50
54832;DHT22;40730;53.068;6.572;2022-11-20T14:07:27;3.90;98.50
54832;DHT22;40730;53.068;6.572;2022-11-20T14:09:57;3.80;97.80
54832;DHT22;40730;53.068;6.572;2022-11-20T14:12:29;3.70;97.40
54832;DHT22;40730;53.068;6.572;2022-11-20T14:14:55;3.70;96.80
54832;DHT22;40730;53.068;6.572;2022-11-20T14:19:51;3.50;96.70
54832;DHT22;40730;53.068;6.572;2022-11-20T14:22:25;3.40;96.90
54832;DHT22;40730;53.068;6.572;2022-11-20T14:28:00;3.30;96.90
54832;DHT22;40730;53.068;6.572;2022-11-20T14:30:44;3.20;97.10
54832;DHT22;40730;53.068;6.572;2022-11-20T14:33:11;3.10;97.20
54832;DHT22;40730;53.068;6.572;2022-11-20T14:35:45;3.10;97.40
54832;DHT22;40730;53.068;6.572;2022-11-20T14:38:28;3.00;97.30
54832;DHT22;40730;53.068;6.572;2022-11-20T14:40:54;2.90;97.50
54832;DHT22;40730;53.068;6.572;2022-11-20T14:43:30;2.90;97.90
54832;DHT22;40730;53.068;6.572;2022-11-20T14:46:03;2.80;98.00
54832;DHT22;40730;53.068;6.572;2022-11-20T14:51:01;2.70;98.60
54832;DHT22;40730;53.068;6.572;2022-11-20T14:53:26;2.70;98.80
54832;DHT22;40730;53.068;6.572;2022-11-20T14:56:00;2.60;99.00
54832;DHT22;40730;53.068;6.572;2022-11-20T14:58:31;3.10;99.30
54832;DHT22;40730;53.068;6.572;2022-11-20T15:01:04;2.50;99.20
54832;DHT22;40730;53.068;6.572;2022-11-20T15:03:40;2.50;99.40
54832;DHT22;40730;53.068;6.572;2022-11-20T15:06:09;2.50;99.70
54832;DHT22;40730;53.068;6.572;2022-11-20T15:08:36;2.40;99.90
54832;DHT22;40730;53.068;6.572;2022-11-20T15:11:02;2.30;99.90
54832;DHT22;40730;53.068;6.572;2022-11-20T15:13:36;2.20;99.90
54832;DHT22;40730;53.068;6.572;2022-11-20T15:16:08;2.10;99.90
54832;DHT22;40730;53.068;6.572;2022-11-20T15:18:40;2.10;99.90
54832;DHT22;40730;53.068;6.572;2022-11-20T15:21:18;2.00;99.90
54832;DHT22;40730;53.068;6.572;2022-11-20T15:23:44;2.00;99.90
54832;DHT22;40730;53.068;6.572;2022-11-20T15:26:11;2.00;99.90
54832;DHT22;40730;53.068;6.572;2022-11-20T15:28:43;2.00;99.90
54832;DHT22;40730;53.068;6.572;2022-11-20T15:31:14;2.00;99.90
54832;DHT22;40730;53.068;6.572;2022-11-20T15:33:39;1.90;99.90
54832;DHT22;40730;53.068;6.572;2022-11-20T15:36:05;2.30;99.90
54832;DHT22;40730;53.068;6.572;2022-11-20T15:38:31;1.90;99.90
54832;DHT22;40730;53.068;6.572;2022-11-20T15:40:57;1.90;99.90
54832;DHT22;40730;53.068;6.572;2022-11-20T15:43:22;1.80;99.90
54832;DHT22;40730;53.068;6.572;2022-11-20T15:45:51;1.80;99.90
54832;DHT22;40730;53.068;6.572;2022-11-20T15:48:20;1.80;99.90
54832;DHT22;40730;53.068;6.572;2022-11-20T15:51:05;1.80;99.90
54832;DHT22;40730;53.068;6.572;2022-11-20T15:53:32;1.80;99.90
54832;DHT22;40730;53.068;6.572;2022-11-20T15:55:57;1.80;99.90
54832;DHT22;40730;53.068;6.572;2022-11-20T15:58:23;1.90;99.90
54832;DHT22;40730;53.068;6.572;2022-11-20T16:00:49;1.70;99.90
54832;DHT22;40730;53.068;6.572;2022-11-20T16:03:16;1.70;99.90
54832;DHT22;40730;53.068;6.572;2022-11-20T16:05:42;1.70;99.90
54832;DHT22;40730;53.068;6.572;2022-11-20T16:08:08;1.70;99.90
54832;DHT22;40730;53.068;6.572;2022-11-20T16:10:33;1.70;99.90
54832;DHT22;40730;53.068;6.572;2022-11-20T16:12:59;1.70;99.90
54832;DHT22;40730;53.068;6.572;2022-11-20T16:15:51;1.60;99.90
54832;DHT22;40730;53.068;6.572;2022-11-20T16:18:19;1.60;99.90
54832;DHT22;40730;53.068;6.572;2022-11-20T16:20:47;1.60;99.90
54832;DHT22;40730;53.068;6.572;2022-11-20T16:23:14;1.60;99.90
54832;DHT22;40730;53.068;6.572;2022-11-20T16:25:41;1.60;99.90
54832;DHT22;40730;53.068;6.572;2022-11-20T16:28:07;1.60;99.90
54832;DHT22;40730;53.068;6.572;2022-11-20T16:30:33;1.60;99.90
54832;DHT22;40730;53.068;6.572;2022-11-20T16:33:00;1.60;99.90
54832;DHT22;40730;53.068;6.572;2022-11-20T16:35:26;1.60;99.90
54832;DHT22;40730;53.068;6.572;2022-11-20T16:37:53;1.60;99.90
54832;DHT22;40730;53.068;6.572;2022-11-20T16:40:19;1.60;99.90
54832;DHT22;40730;53.068;6.572;2022-11-20T16:42:44;1.60;99.90
54832;DHT22;40730;53.068;6.572;2022-11-20T16:45:10;1.50;99.90
54832;DHT22;40730;53.068;6.572;2022-11-20T16:47:36;1.50;99.90
54832;DHT22;40730;53.068;6.572;2022-11-20T16:50:03;1.50;99.90
54832;DHT22;40730;53.068;6.572;2022-11-20T16:52:29;1.50;99.90
54832;DHT22;40730;53.068;6.572;2022-11-20T16:54:56;1.50;99.90
54832;DHT22;40730;53.068;6.572;2022-11-20T16:57:21;1.50;99.90
54832;DHT22;40730;53.068;6.572;2022-11-20T16:59:47;1.50;99.90
54832;DHT22;40730;53.068;6.572;2022-11-20T17:02:13;1.50;99.90
54832;DHT22;40730;53.068;6.572;2022-11-20T17:04:39;1.50;99.90
54832;DHT22;40730;53.068;6.572;2022-11-20T17:07:06;1.40;99.90
54832;DHT22;40730;53.068;6.572;2022-11-20T17:09:32;1.40;99.90
54832;DHT22;40730;53.068;6.572;2022-11-20T17:11:57;1.40;99.90
54832;DHT22;40730;53.068;6.572;2022-11-20T17:14:23;1.40;99.90
54832;DHT22;40730;53.068;6.572;2022-11-20T17:16:49;1.40;99.90
54832;DHT22;40730;53.068;6.572;2022-11-20T17:19:14;1.40;99.90
54832;DHT22;40730;53.068;6.572;2022-11-20T17:21:40;1.40;99.90
54832;DHT22;40730;53.068;6.572;2022-11-20T17:24:11;1.40;99.90
54832;DHT22;40730;53.068;6.572;2022-11-20T17:26:39;1.40;99.90
54832;DHT22;40730;53.068;6.572;2022-11-20T17:29:16;1.40;99.90
54832;DHT22;40730;53.068;6.572;2022-11-20T17:31:43;1.40;99.90